createdAt,value
2023-05-14T00:00:36.309Z,5.45
2023-05-14T00:03:24.438Z,5.42
2023-05-14T00:05:52.457Z,5.41
2023-05-14T00:08:20.723Z,5.41
2023-05-14T00:10:48.703Z,5.43
2023-05-14T00:13:16.898Z,5.43
2023-05-14T00:15:45.342Z,5.40
2023-05-14T00:18:13.521Z,5.37
2023-05-14T00:20:41.718Z,5.33
2023-05-14T00:23:10.172Z,5.30
2023-05-14T00:25:38.818Z,5.25
2023-05-14T00:28:07.858Z,5.21
2023-05-14T00:30:36.274Z,5.18
2023-05-14T00:33:04.345Z,5.18
2023-05-14T00:35:37.163Z,5.18
2023-05-14T00:38:05.390Z,5.16
2023-05-14T00:40:34.292Z,5.13
2023-05-14T00:43:03.772Z,5.11
2023-05-14T00:45:31.817Z,5.07
2023-05-14T00:48:00.062Z,5.02
2023-05-14T00:50:28.500Z,4.99
2023-05-14T00:52:56.767Z,4.96
2023-05-14T00:55:25.835Z,4.93
2023-05-14T00:57:58.178Z,4.89
2023-05-14T01:00:26.355Z,4.84
2023-05-14T01:02:54.400Z,4.81
2023-05-14T01:05:26.432Z,4.79
2023-05-14T01:08:16.667Z,4.78
2023-05-14T01:10:52.401Z,4.75
2023-05-14T01:13:37.585Z,4.73
2023-05-14T01:16:12.529Z,4.70
2023-05-14T01:18:43.447Z,4.68
2023-05-14T01:21:34.950Z,4.64
2023-05-14T01:24:03.188Z,4.62
2023-05-14T01:26:31.704Z,4.61
2023-05-14T01:29:06.760Z,4.64
2023-05-14T01:31:39.135Z,4.65
2023-05-14T01:34:10.059Z,4.64
2023-05-14T01:36:40.415Z,4.58
2023-05-14T01:39:10.858Z,4.53
2023-05-14T01:41:40.523Z,4.50
2023-05-14T01:44:11.969Z,4.48
2023-05-14T01:46:40.235Z,4.45
2023-05-14T01:49:08.563Z,4.41
2023-05-14T01:51:37.837Z,4.38
2023-05-14T01:54:06.214Z,4.35
2023-05-14T01:56:34.617Z,4.32
2023-05-14T01:59:02.598Z,4.31
2023-05-14T02:01:31.814Z,4.30
2023-05-14T02:04:01.202Z,4.29
2023-05-14T02:06:29.368Z,4.28
2023-05-14T02:08:57.615Z,4.27
2023-05-14T02:11:26.406Z,4.25
2023-05-14T02:13:56.031Z,4.24
2023-05-14T02:16:24.178Z,4.21
2023-05-14T02:18:53.024Z,4.18
2023-05-14T02:21:26.976Z,4.16
2023-05-14T02:23:57.807Z,4.12
2023-05-14T02:26:25.885Z,4.10
2023-05-14T02:28:53.974Z,4.08
2023-05-14T02:31:22.071Z,4.06
2023-05-14T02:33:50.425Z,4.04
2023-05-14T02:36:18.676Z,4.00
2023-05-14T02:38:46.719Z,3.97
2023-05-14T02:41:14.958Z,4.01
2023-05-14T02:43:42.907Z,3.97
2023-05-14T02:46:11.101Z,3.88
2023-05-14T02:48:39.084Z,3.88
2023-05-14T02:51:08.418Z,3.95
2023-05-14T02:53:36.618Z,4.07
2023-05-14T02:56:05.033Z,4.13
2023-05-14T02:58:33.184Z,4.17
2023-05-14T03:01:01.326Z,4.26
2023-05-14T03:03:31.416Z,4.46
2023-05-14T03:05:59.839Z,4.82
2023-05-14T03:08:27.973Z,5.23
2023-05-14T03:10:56.102Z,5.63
2023-05-14T03:13:24.175Z,6.05
2023-05-14T03:15:55.080Z,6.50
2023-05-14T03:18:24.759Z,7.00
2023-05-14T03:20:52.889Z,7.53
2023-05-14T03:23:21.072Z,8.05
2023-05-14T03:25:49.100Z,8.57
2023-05-14T03:28:17.094Z,9.05
2023-05-14T03:30:45.133Z,9.41
2023-05-14T03:33:13.764Z,9.59
2023-05-14T03:35:41.924Z,9.64
2023-05-14T03:38:10.206Z,9.68
2023-05-14T03:40:38.298Z,9.46
2023-05-14T03:43:06.458Z,9.15
2023-05-14T03:45:35.443Z,8.94
2023-05-14T03:48:03.811Z,8.88
2023-05-14T03:50:34.352Z,9.01
2023-05-14T03:53:02.392Z,9.15
2023-05-14T03:55:31.460Z,9.24
2023-05-14T03:57:59.440Z,9.38
2023-05-14T04:05:12.592Z,9.88
2023-05-14T04:07:40.860Z,10.02
2023-05-14T04:10:09.298Z,10.22
2023-05-14T04:12:37.492Z,10.32
2023-05-14T04:15:06.710Z,10.48
2023-05-14T04:17:35.163Z,10.87
2023-05-14T04:20:04.563Z,11.39
2023-05-14T04:22:32.839Z,11.71
2023-05-14T04:25:00.806Z,12.14
2023-05-14T04:27:29.019Z,12.53
2023-05-14T04:29:57.009Z,12.81
2023-05-14T04:34:37.658Z,13.69
2023-05-14T04:37:05.612Z,14.94
2023-05-14T04:39:33.752Z,16.62
2023-05-14T04:42:01.882Z,18.15
2023-05-14T04:44:29.806Z,19.58
2023-05-14T04:46:57.779Z,21.02
2023-05-14T04:49:26.193Z,22.37
2023-05-14T04:51:54.188Z,23.25
2023-05-14T04:54:22.193Z,23.53
2023-05-14T04:56:50.405Z,24.68
2023-05-14T04:59:18.257Z,25.67
2023-05-14T05:01:46.700Z,26.56
2023-05-14T05:04:14.717Z,27.33
2023-05-14T05:06:42.748Z,28.15
2023-05-14T05:09:11.800Z,29.08
2023-05-14T05:11:40.085Z,29.97
2023-05-14T05:14:08.043Z,30.36
2023-05-14T05:16:36.270Z,30.56
2023-05-14T05:19:04.299Z,30.81
2023-05-14T05:21:32.332Z,30.65
2023-05-14T05:24:00.260Z,29.63
2023-05-14T05:26:28.452Z,28.59
2023-05-14T05:28:56.441Z,27.98
2023-05-14T05:31:25.076Z,27.40
2023-05-14T05:33:53.200Z,26.80
2023-05-14T05:36:21.273Z,26.36
2023-05-14T05:38:49.242Z,26.00
2023-05-14T05:41:17.409Z,25.54
2023-05-14T05:43:45.714Z,25.33
2023-05-14T05:46:14.750Z,25.12
2023-05-14T05:48:43.794Z,24.94
2023-05-14T05:51:12.098Z,24.87
2023-05-14T05:53:40.399Z,24.85
2023-05-14T05:56:08.249Z,24.98
2023-05-14T05:58:37.186Z,25.14
2023-05-14T06:01:05.214Z,25.57
2023-05-14T06:03:33.552Z,26.04
2023-05-14T06:06:01.416Z,26.07
2023-05-14T06:08:29.373Z,26.01
2023-05-14T06:10:57.660Z,26.20
2023-05-14T06:13:26.275Z,26.32
2023-05-14T06:15:54.689Z,26.12
2023-05-14T06:18:22.596Z,26.35
2023-05-14T06:20:50.594Z,26.45
2023-05-14T06:23:18.581Z,26.51
2023-05-14T06:25:47.897Z,26.65
2023-05-14T06:28:17.535Z,26.84
2023-05-14T06:30:45.499Z,26.89
2023-05-14T06:33:15.091Z,26.76
2023-05-14T06:35:44.591Z,26.50
2023-05-14T06:38:12.503Z,26.26
2023-05-14T06:40:40.403Z,26.05
2023-05-14T06:43:08.537Z,26.26
2023-05-14T06:45:36.643Z,26.42
2023-05-14T06:48:04.816Z,26.51
2023-05-14T06:50:32.735Z,26.76
2023-05-14T06:53:00.947Z,26.66
2023-05-14T06:55:28.843Z,26.52
2023-05-14T06:57:56.720Z,26.28
2023-05-14T07:00:25.119Z,26.39
2023-05-14T07:02:53.431Z,26.50
2023-05-14T07:05:21.660Z,26.67
2023-05-14T07:07:50.214Z,27.07
2023-05-14T07:10:18.137Z,27.24
2023-05-14T07:12:46.101Z,27.08
2023-05-14T07:15:14.766Z,27.11
2023-05-14T07:17:42.985Z,27.08
2023-05-14T07:20:11.572Z,27.04
2023-05-14T07:22:39.622Z,27.18
2023-05-14T07:25:08.003Z,27.27
2023-05-14T07:27:36.047Z,26.99
2023-05-14T07:30:04.295Z,26.78
2023-05-14T07:32:32.154Z,26.76
2023-05-14T07:35:00.235Z,26.75
2023-05-14T07:37:28.136Z,26.79
2023-05-14T07:39:56.395Z,26.79
2023-05-14T07:42:35.159Z,26.62
2023-05-14T07:45:04.366Z,26.67
2023-05-14T07:47:32.485Z,26.33
2023-05-14T07:50:00.601Z,25.96
2023-05-14T07:52:28.799Z,25.52
2023-05-14T07:54:56.724Z,25.06
2023-05-14T07:57:26.470Z,24.71
2023-05-14T07:59:54.334Z,24.66
2023-05-14T08:02:22.605Z,24.38
2023-05-14T08:04:50.594Z,24.19
2023-05-14T08:07:18.834Z,24.10
2023-05-14T08:09:47.183Z,23.87
2023-05-14T08:12:16.065Z,23.70
2023-05-14T08:14:44.179Z,23.45
2023-05-14T08:17:12.452Z,23.30
2023-05-14T08:19:40.692Z,23.46
2023-05-14T08:22:08.708Z,23.63
2023-05-14T08:24:36.592Z,23.58
2023-05-14T08:27:04.752Z,23.49
2023-05-14T08:29:32.904Z,23.36
2023-05-14T08:32:08.390Z,22.99
2023-05-14T08:34:44.130Z,23.05
2023-05-14T08:37:12.443Z,23.12
2023-05-14T08:39:40.813Z,23.12
2023-05-14T08:42:12.314Z,23.12
2023-05-14T08:44:46.715Z,23.07
2023-05-14T08:47:15.943Z,22.95
2023-05-14T08:49:46.600Z,22.65
2023-05-14T08:52:16.402Z,22.62
2023-05-14T08:54:45.486Z,22.63
2023-05-14T08:57:14.872Z,22.52
2023-05-14T08:59:43.728Z,22.61
2023-05-14T09:02:14.553Z,22.78
2023-05-14T09:04:42.697Z,22.85
2023-05-14T09:07:11.628Z,22.93
2023-05-14T09:09:40.487Z,22.90
2023-05-14T09:12:08.828Z,22.96
2023-05-14T09:14:36.930Z,23.01
2023-05-14T09:17:05.410Z,23.07
2023-05-14T09:19:33.425Z,23.16
2023-05-14T09:22:01.326Z,23.12
2023-05-14T09:24:29.684Z,23.08
2023-05-14T09:26:58.120Z,22.74
2023-05-14T09:29:27.788Z,22.73
2023-05-14T09:31:56.984Z,22.78
2023-05-14T09:34:26.261Z,22.96
2023-05-14T09:36:57.360Z,23.15
2023-05-14T09:39:26.479Z,23.14
2023-05-14T09:41:54.957Z,23.06
2023-05-14T09:44:23.452Z,22.98
2023-05-14T09:46:52.162Z,22.82
2023-05-14T09:49:22.071Z,22.67
2023-05-14T09:51:51.201Z,22.70
2023-05-14T09:54:19.282Z,22.70
2023-05-14T09:56:47.170Z,22.70
2023-05-14T09:59:15.253Z,22.78
2023-05-14T10:01:44.423Z,22.69
2023-05-14T10:04:12.948Z,22.60
2023-05-14T10:06:43.432Z,22.55
2023-05-14T10:09:13.284Z,22.48
2023-05-14T10:11:45.371Z,22.56
2023-05-14T10:14:18.554Z,22.81
2023-05-14T10:16:50.511Z,22.84
2023-05-14T10:19:20.968Z,22.81
2023-05-14T10:21:53.241Z,22.57
2023-05-14T10:24:22.090Z,22.34
2023-05-14T10:26:50.124Z,22.33
2023-05-14T10:29:18.090Z,22.29
2023-05-14T10:31:47.405Z,22.23
2023-05-14T10:34:31.505Z,22.29
2023-05-14T10:37:00.902Z,22.37
2023-05-14T10:39:45.225Z,22.43
2023-05-14T10:42:23.606Z,22.43
2023-05-14T10:45:02.040Z,22.45
2023-05-14T10:47:30.503Z,22.62
2023-05-14T10:49:59.344Z,22.57
2023-05-14T10:52:27.426Z,22.63
2023-05-14T10:54:57.482Z,22.71
2023-05-14T10:57:27.682Z,22.91
2023-05-14T10:59:56.544Z,22.99
2023-05-14T11:04:50.717Z,22.77
2023-05-14T11:07:24.334Z,22.49
2023-05-14T11:09:53.237Z,22.45
2023-05-14T11:12:21.401Z,22.57
2023-05-14T11:14:50.360Z,22.65
2023-05-14T11:17:18.438Z,22.75
2023-05-14T11:19:46.543Z,22.91
2023-05-14T11:22:14.661Z,22.80
2023-05-14T11:24:42.837Z,22.79
2023-05-14T11:27:10.949Z,22.74
2023-05-14T11:29:39.226Z,22.67
2023-05-14T11:32:07.448Z,22.84
2023-05-14T11:34:37.327Z,22.78
2023-05-14T11:37:06.020Z,22.75
2023-05-14T11:39:34.197Z,22.57
2023-05-14T11:42:06.056Z,22.48
2023-05-14T11:44:33.989Z,22.46
2023-05-14T11:47:02.146Z,22.46
2023-05-14T11:49:30.308Z,22.63
2023-05-14T11:52:23.254Z,22.72
2023-05-14T11:54:51.513Z,22.77
2023-05-14T11:57:21.117Z,22.74
2023-05-14T11:59:49.891Z,22.60
2023-05-14T12:02:19.846Z,22.71
2023-05-14T12:04:50.850Z,22.76
2023-05-14T12:07:18.858Z,22.70
2023-05-14T12:09:50.856Z,22.68
2023-05-14T12:12:20.053Z,22.63
2023-05-14T12:14:49.304Z,22.62
2023-05-14T12:17:18.798Z,22.62
2023-05-14T12:19:48.270Z,22.78
2023-05-14T12:22:17.995Z,22.85
2023-05-14T12:24:59.007Z,22.88
2023-05-14T12:27:27.993Z,22.92
2023-05-14T12:30:20.124Z,22.87
2023-05-14T12:32:51.990Z,22.89
2023-05-14T12:35:21.492Z,22.95
2023-05-14T12:37:49.418Z,23.11
2023-05-14T12:40:17.364Z,23.20
2023-05-14T12:42:45.879Z,23.25
2023-05-14T12:45:14.378Z,23.11
2023-05-14T12:47:42.605Z,23.10
2023-05-14T12:50:10.895Z,23.02
2023-05-14T12:52:40.208Z,22.78
2023-05-14T12:55:09.384Z,22.81
2023-05-14T12:57:39.284Z,22.83
2023-05-14T13:00:08.712Z,22.91
2023-05-14T13:02:43.163Z,22.97
2023-05-14T13:05:12.376Z,22.97
2023-05-14T13:07:41.149Z,22.95
2023-05-14T13:10:09.379Z,22.87
2023-05-14T13:12:37.249Z,22.91
2023-05-14T13:15:06.563Z,22.97
2023-05-14T13:17:34.592Z,23.03
2023-05-14T13:20:02.507Z,23.04
2023-05-14T13:22:30.418Z,23.10
2023-05-14T13:24:59.042Z,23.02
2023-05-14T13:27:27.319Z,22.93
2023-05-14T13:29:55.616Z,23.00
2023-05-14T13:32:23.661Z,22.93
2023-05-14T13:34:51.633Z,22.99
2023-05-14T13:37:19.890Z,22.99
2023-05-14T13:39:49.535Z,22.99
2023-05-14T13:42:19.356Z,22.78
2023-05-14T13:44:47.269Z,22.68
2023-05-14T13:47:15.526Z,22.68
2023-05-14T13:49:43.699Z,22.62
2023-05-14T13:52:11.738Z,22.52
2023-05-14T13:54:39.639Z,22.48
2023-05-14T13:57:07.528Z,22.41
2023-05-14T13:59:35.871Z,22.37
2023-05-14T14:02:04.284Z,22.43
2023-05-14T14:04:32.366Z,22.46
2023-05-14T14:07:00.627Z,22.48
2023-05-14T14:09:28.449Z,22.43
2023-05-14T14:11:56.339Z,22.50
2023-05-14T14:14:24.273Z,22.44
2023-05-14T14:16:52.138Z,22.39
2023-05-14T14:19:20.999Z,22.40
2023-05-14T14:24:22.091Z,22.46
2023-05-14T14:26:50.031Z,22.39
2023-05-14T14:29:17.829Z,22.35
2023-05-14T14:31:45.913Z,22.37
2023-05-14T14:34:13.811Z,22.31
2023-05-14T14:36:41.634Z,22.25
2023-05-14T14:39:09.495Z,22.21
2023-05-14T14:41:37.414Z,22.16
2023-05-14T14:44:05.700Z,22.19
2023-05-14T14:46:34.160Z,22.21
2023-05-14T14:49:02.131Z,22.15
2023-05-14T14:51:30.420Z,22.02
2023-05-14T14:53:58.600Z,21.94
2023-05-14T14:56:26.946Z,21.94
2023-05-14T14:58:54.932Z,21.88
2023-05-14T15:01:23.150Z,21.82
2023-05-14T15:03:51.224Z,21.83
2023-05-14T15:06:19.217Z,21.82
2023-05-14T15:08:47.114Z,21.71
2023-05-14T15:11:15.426Z,21.70
2023-05-14T15:13:43.559Z,21.58
2023-05-14T15:16:12.550Z,21.56
2023-05-14T15:18:40.746Z,21.40
2023-05-14T15:21:08.885Z,21.41
2023-05-14T15:23:36.759Z,21.44
2023-05-14T15:26:04.810Z,21.40
2023-05-14T15:28:32.984Z,21.34
2023-05-14T15:31:02.468Z,21.34
2023-05-14T15:33:30.644Z,21.42
2023-05-14T15:35:58.527Z,21.43
2023-05-14T15:38:26.658Z,21.39
2023-05-14T15:40:54.637Z,21.28
2023-05-14T15:43:22.571Z,21.13
2023-05-14T15:45:50.925Z,21.01
2023-05-14T15:48:18.823Z,20.91
2023-05-14T15:50:49.553Z,20.85
2023-05-14T15:53:17.823Z,20.84
2023-05-14T15:55:48.018Z,20.86
2023-05-14T15:58:16.285Z,20.90
2023-05-14T16:00:44.374Z,20.93
2023-05-14T16:03:12.499Z,20.98
2023-05-14T16:05:42.690Z,20.95
2023-05-14T16:08:10.739Z,20.99
2023-05-14T16:10:38.737Z,21.01
2023-05-14T16:13:06.775Z,21.03
2023-05-14T16:15:34.907Z,21.07
2023-05-14T16:18:03.062Z,21.01
2023-05-14T16:20:31.125Z,20.95
2023-05-14T16:22:59.111Z,20.96
2023-05-14T16:25:27.246Z,20.97
2023-05-14T16:27:55.347Z,20.98
2023-05-14T16:30:23.649Z,20.98
2023-05-14T16:32:52.088Z,20.98
2023-05-14T16:35:20.614Z,20.92
2023-05-14T16:37:49.539Z,20.81
2023-05-14T16:40:19.651Z,20.76
2023-05-14T16:42:49.255Z,20.73
2023-05-14T16:45:17.811Z,20.71
2023-05-14T16:47:45.912Z,20.67
2023-05-14T16:50:13.985Z,20.60
2023-05-14T16:52:42.160Z,20.55
2023-05-14T16:55:10.646Z,20.50
2023-05-14T16:57:38.944Z,20.45
2023-05-14T17:00:09.616Z,20.34
2023-05-14T17:02:38.108Z,20.18
2023-05-14T17:08:01.053Z,20.12
2023-05-14T17:10:30.951Z,20.07
2023-05-14T17:12:59.904Z,19.97
2023-05-14T17:15:46.077Z,19.90
2023-05-14T17:18:14.215Z,19.82
2023-05-14T17:20:42.619Z,19.77
2023-05-14T17:23:10.770Z,19.71
2023-05-14T17:25:39.334Z,19.64
2023-05-14T17:28:07.359Z,19.57
2023-05-14T17:30:35.454Z,19.51
2023-05-14T17:33:03.821Z,19.41
2023-05-14T17:35:35.840Z,19.34
2023-05-14T17:38:03.826Z,19.26
2023-05-14T17:40:31.945Z,19.19
2023-05-14T17:42:59.873Z,19.11
2023-05-14T17:45:32.179Z,19.04
2023-05-14T17:48:04.905Z,18.93
2023-05-14T17:50:33.139Z,18.87
2023-05-14T17:53:01.211Z,18.79
2023-05-14T17:55:29.251Z,18.71
2023-05-14T17:57:57.230Z,18.63
2023-05-14T18:00:25.751Z,18.55
2023-05-14T18:02:53.790Z,18.46
2023-05-14T18:05:22.533Z,18.38
2023-05-14T18:07:51.139Z,18.30
2023-05-14T18:10:19.728Z,18.22
2023-05-14T18:12:48.060Z,18.15
2023-05-14T18:15:16.332Z,18.08
2023-05-14T18:17:44.840Z,18.00
2023-05-14T18:20:13.060Z,17.90
2023-05-14T18:22:41.399Z,17.76
2023-05-14T18:25:10.013Z,17.64
2023-05-14T18:27:44.635Z,17.48
2023-05-14T18:30:14.806Z,17.31
2023-05-14T18:32:44.578Z,17.15
2023-05-14T18:35:14.379Z,16.97
2023-05-14T18:37:42.624Z,16.84
2023-05-14T18:40:11.389Z,16.70
2023-05-14T18:42:39.539Z,16.55
2023-05-14T18:45:08.014Z,16.44
2023-05-14T18:47:36.728Z,16.32
2023-05-14T18:50:05.736Z,16.19
2023-05-14T18:52:34.100Z,16.05
2023-05-14T18:55:02.094Z,15.92
2023-05-14T18:57:32.258Z,15.79
2023-05-14T19:04:52.803Z,15.34
2023-05-14T19:07:21.717Z,15.15
2023-05-14T19:09:51.153Z,14.97
2023-05-14T19:12:19.696Z,14.82
2023-05-14T19:14:47.789Z,14.70
2023-05-14T19:17:18.356Z,14.58
2023-05-14T19:19:47.445Z,14.45
2023-05-14T19:22:15.466Z,14.36
2023-05-14T19:24:43.645Z,14.25
2023-05-14T19:27:16.382Z,14.17
2023-05-14T19:29:44.901Z,14.08
2023-05-14T19:32:12.763Z,13.99
2023-05-14T19:34:41.073Z,13.92
2023-05-14T19:37:10.829Z,13.84
2023-05-14T19:39:39.848Z,13.78
2023-05-14T19:42:07.857Z,13.73
2023-05-14T19:44:35.775Z,13.68
2023-05-14T19:47:03.980Z,13.62
2023-05-14T19:49:32.310Z,13.55
2023-05-14T19:52:00.625Z,13.49
2023-05-14T19:54:28.491Z,13.44
2023-05-14T19:56:57.021Z,13.38
2023-05-14T19:59:26.450Z,13.33
2023-05-14T20:01:55.209Z,13.26
2023-05-14T20:04:23.331Z,13.20
2023-05-14T20:06:51.516Z,13.13
2023-05-14T20:09:20.263Z,13.07
2023-05-14T20:11:48.767Z,13.01
2023-05-14T20:14:16.925Z,12.96
2023-05-14T20:16:45.237Z,12.90
2023-05-14T20:19:14.682Z,12.83
2023-05-14T20:21:42.780Z,12.76
2023-05-14T20:24:10.896Z,12.71
2023-05-14T20:26:38.861Z,12.66
2023-05-14T20:29:07.024Z,12.63
2023-05-14T20:31:35.150Z,12.61
2023-05-14T20:34:03.735Z,12.62
2023-05-14T20:36:32.105Z,12.60
2023-05-14T20:39:00.865Z,12.58
2023-05-14T20:41:29.387Z,12.57
2023-05-14T20:43:57.379Z,12.56
2023-05-14T20:46:26.100Z,12.58
2023-05-14T20:48:55.800Z,12.59
2023-05-14T20:51:24.397Z,12.61
2023-05-14T20:53:54.011Z,12.67
2023-05-14T20:56:22.677Z,12.74
2023-05-14T20:58:50.764Z,12.85
2023-05-14T21:01:19.210Z,12.98
2023-05-14T21:03:47.422Z,13.10
2023-05-14T21:06:16.628Z,13.23
2023-05-14T21:08:44.649Z,13.36
2023-05-14T21:11:14.639Z,13.49
2023-05-14T21:13:44.548Z,13.61
2023-05-14T21:16:12.841Z,13.75
2023-05-14T21:18:40.946Z,13.87
2023-05-14T21:21:09.209Z,13.96
2023-05-14T21:23:37.261Z,14.04
2023-05-14T21:26:05.200Z,14.13
2023-05-14T21:28:33.248Z,14.21
2023-05-14T21:31:01.414Z,14.30
2023-05-14T21:33:29.522Z,14.38
2023-05-14T21:35:57.573Z,14.41
2023-05-14T21:38:25.822Z,14.45
2023-05-14T21:40:53.822Z,14.47
2023-05-14T21:43:22.152Z,14.50
2023-05-14T21:45:50.528Z,14.50
2023-05-14T21:48:18.746Z,14.52
2023-05-14T21:50:47.111Z,14.55
2023-05-14T21:53:15.496Z,14.57
2023-05-14T21:55:43.509Z,14.57
2023-05-14T21:58:11.582Z,14.61
2023-05-14T22:00:39.600Z,14.67
2023-05-14T22:03:07.727Z,14.71
2023-05-14T22:05:35.964Z,14.72
2023-05-14T22:08:04.044Z,14.73
2023-05-14T22:10:32.360Z,14.74
2023-05-14T22:13:00.375Z,14.75
2023-05-14T22:15:28.573Z,14.77
2023-05-14T22:17:57.025Z,14.80
2023-05-14T22:20:25.044Z,14.80
2023-05-14T22:22:52.963Z,14.81
2023-05-14T22:25:20.953Z,14.81
2023-05-14T22:27:49.922Z,14.82
2023-05-14T22:30:17.821Z,14.81
2023-05-14T22:32:45.833Z,14.78
2023-05-14T22:35:14.786Z,14.78
2023-05-14T22:37:43.241Z,14.77
2023-05-14T22:40:13.524Z,14.77
2023-05-14T22:42:41.533Z,14.79
2023-05-14T22:45:10.545Z,14.80
2023-05-14T22:47:41.907Z,14.80
2023-05-14T22:50:11.673Z,14.80
2023-05-14T22:52:40.272Z,14.79
2023-05-14T22:55:09.239Z,14.79
2023-05-14T22:57:37.671Z,14.79
2023-05-14T23:00:08.958Z,14.77
2023-05-14T23:02:36.913Z,14.78
2023-05-14T23:05:06.330Z,14.77
2023-05-14T23:07:34.998Z,14.76
2023-05-14T23:10:03.040Z,14.74
2023-05-14T23:12:31.288Z,14.73
2023-05-14T23:14:59.306Z,14.73
2023-05-14T23:17:27.796Z,14.72
2023-05-14T23:19:56.043Z,14.69
2023-05-14T23:22:24.066Z,14.68
2023-05-14T23:24:51.995Z,14.65
2023-05-14T23:27:20.247Z,14.62
2023-05-14T23:29:48.321Z,14.60
2023-05-14T23:32:16.505Z,14.56
2023-05-14T23:34:44.559Z,14.56
2023-05-14T23:37:14.454Z,14.55
2023-05-14T23:39:42.528Z,14.53
2023-05-14T23:42:10.402Z,14.50
2023-05-14T23:44:38.331Z,14.48
2023-05-14T23:47:08.856Z,14.45
2023-05-14T23:49:37.014Z,14.43
2023-05-14T23:52:05.420Z,14.41
2023-05-14T23:54:33.385Z,14.39
2023-05-14T23:57:03.450Z,14.37
2023-05-14T23:59:31.559Z,14.36
